Terminal Aerodrome Forecast
Issued by NWS St Louis, MO

Home | Current Version | Previous Version | Text Only | Print | Product List | Glossary On
Versions: 1 2 3 4 5 6 7 8 9 10 11 12 13 14 15 16 17 18
000
FTUS43 KLSX 202300 AAB
TAFCOU
TAF AMD
KCOU 202312Z 2023/2118 16007KT P6SM VCTS SCT060CB
      TEMPO 2023/2024 23010G30KT 5SM -TSRA BKN060CB
     FM210000 18006KT P6SM BKN090=

USA.gov is the U.S. government's official web portal to all federal, state and local government web resources and services.